HWI weather

Public forecast

Using degrees Celsius for public forecast. Weather courtesy of forecast.io.

Closest aviation weather report (METAR) to I.M.S.S. Heliport

Closest report is Licenciado Benito Juarez International Airport, 5.8 nm (10.8 km) E. Retrieved 2020/08/09 19:45 UTC (52 minutes ago):

MMMX 091945Z 22003KT 8SM SCT020TCU BKN080 23/10 A3035 NOSIG RMK 8/230 HZY CI

Closest aviation forecast (TAF) to I.M.S.S. Heliport

Closest forecast is Licenciado Benito Juarez International Airport, 5.8 nm (10.8 km) E. Retrieved 2020/08/09 18:36 UTC (2 hours ago):

TAF MMMX 091734Z 0918/1024 06005KT P6SM SCT020 SCT090 TX23/0921Z TN14/1012Z FM092100 14010KT P6SM BKN020 BKN080 TEMPO 0922/1002 5SM RA BKN020CB FM100300 14005KT P6SM -RA BKN020 OVC080 FM101200 00000KT P6SM SCT015 BKN080 TEMPO 1012/1015 BKN015 FM101600 14010KT P6SM SCT020 SCT080